createdAt,value
2018-07-19T00:00:56.612Z,3.07
2018-07-19T00:03:24.977Z,2.93
2018-07-19T00:05:53.284Z,3.13
2018-07-19T00:08:21.644Z,3.33
2018-07-19T00:10:49.989Z,3.30
2018-07-19T00:13:18.332Z,3.33
2018-07-19T00:15:46.642Z,3.20
2018-07-19T00:18:14.973Z,3.40
2018-07-19T00:20:43.333Z,2.93
2018-07-19T00:23:11.716Z,3.00
2018-07-19T00:25:40.025Z,3.17
2018-07-19T00:28:08.361Z,2.70
2018-07-19T00:30:36.641Z,3.23
2018-07-19T00:33:05.234Z,3.20
2018-07-19T00:35:33.540Z,2.90
2018-07-19T00:38:01.869Z,3.30
2018-07-19T00:40:30.237Z,2.97
2018-07-19T00:42:58.709Z,3.43
2018-07-19T00:45:27.041Z,3.20
2018-07-19T00:47:55.348Z,3.40
2018-07-19T00:50:23.668Z,2.60
2018-07-19T00:52:51.964Z,3.40
2018-07-19T00:55:20.308Z,3.43
2018-07-19T00:57:48.648Z,4.50
2018-07-19T01:00:17.033Z,3.10
2018-07-19T01:02:45.353Z,3.83
2018-07-19T01:05:13.705Z,2.70
2018-07-19T01:07:42.008Z,3.77
2018-07-19T01:10:10.344Z,2.30
2018-07-19T01:12:38.685Z,3.47
2018-07-19T01:15:07.025Z,3.10
2018-07-19T01:17:35.335Z,2.93
2018-07-19T01:20:03.866Z,3.20
2018-07-19T01:22:32.193Z,3.33
2018-07-19T01:25:00.516Z,3.70
2018-07-19T01:27:28.824Z,3.10
2018-07-19T01:29:57.192Z,3.10
2018-07-19T01:32:25.522Z,2.97
2018-07-19T01:34:53.852Z,3.07
2018-07-19T01:37:22.158Z,2.83
2018-07-19T01:39:50.492Z,3.00
2018-07-19T01:42:28.727Z,3.67
2018-07-19T01:44:57.056Z,2.80
2018-07-19T01:47:25.413Z,3.07
2018-07-19T01:49:53.753Z,3.27
2018-07-19T01:52:22.057Z,3.50
2018-07-19T01:54:50.437Z,3.37
2018-07-19T01:57:19.384Z,3.57
2018-07-19T01:59:48.403Z,3.07
2018-07-19T02:02:17.506Z,3.20
2018-07-19T02:04:45.924Z,3.30
2018-07-19T02:07:14.264Z,2.90
2018-07-19T02:09:42.588Z,3.43
2018-07-19T02:12:11.089Z,3.73
2018-07-19T02:14:39.393Z,3.77
2018-07-19T02:17:07.745Z,3.53
2018-07-19T02:19:36.066Z,3.87
2018-07-19T02:22:04.412Z,3.40
2018-07-19T02:24:32.703Z,3.30
2018-07-19T02:27:01.055Z,4.07
2018-07-19T02:29:29.380Z,2.70
2018-07-19T02:31:57.712Z,2.87
2018-07-19T02:34:26.037Z,3.57
2018-07-19T02:36:54.357Z,3.30
2018-07-19T02:39:22.669Z,3.40
2018-07-19T02:41:51.008Z,3.60
2018-07-19T02:44:19.341Z,3.60
2018-07-19T02:46:47.665Z,3.00
2018-07-19T02:49:15.969Z,3.57
2018-07-19T02:51:44.344Z,3.37
2018-07-19T02:54:12.920Z,3.40
2018-07-19T02:56:41.253Z,3.80
2018-07-19T02:59:09.591Z,3.10
2018-07-19T03:01:37.924Z,4.03
2018-07-19T03:04:06.246Z,3.63
2018-07-19T03:06:34.656Z,3.30
2018-07-19T03:09:04.105Z,12.27
2018-07-19T03:11:32.466Z,3.70
2018-07-19T03:14:00.759Z,4.20
2018-07-19T03:16:29.108Z,3.50
2018-07-19T03:18:57.423Z,3.30
2018-07-19T03:21:25.792Z,3.07
2018-07-19T03:23:54.113Z,3.77
2018-07-19T03:26:22.432Z,3.40
2018-07-19T03:28:50.811Z,3.27
2018-07-19T03:31:19.129Z,3.40
2018-07-19T03:33:47.466Z,3.37
2018-07-19T03:36:15.774Z,3.20
2018-07-19T03:38:44.084Z,3.00
2018-07-19T03:41:12.385Z,3.30
2018-07-19T03:43:40.738Z,3.43
2018-07-19T03:46:09.168Z,3.53
2018-07-19T03:48:37.486Z,3.30
2018-07-19T03:51:05.852Z,3.10
2018-07-19T03:53:34.184Z,3.87
2018-07-19T03:56:02.488Z,3.60
2018-07-19T03:58:30.889Z,5.03
2018-07-19T04:00:59.195Z,5.40
2018-07-19T04:03:27.531Z,13.93
2018-07-19T04:05:55.852Z,6.90
2018-07-19T04:08:24.187Z,5.80
2018-07-19T04:10:52.502Z,4.07
2018-07-19T04:13:20.853Z,7.00
2018-07-19T04:15:49.180Z,5.73
2018-07-19T04:18:19.765Z,8.13
2018-07-19T04:20:48.252Z,9.17
2018-07-19T04:23:16.584Z,8.10
2018-07-19T04:25:48.565Z,6.33
2018-07-19T04:28:16.947Z,4.27
2018-07-19T04:30:45.256Z,4.10
2018-07-19T04:33:13.568Z,3.53
2018-07-19T04:35:41.881Z,3.37
2018-07-19T04:38:10.316Z,3.03
2018-07-19T04:40:38.632Z,3.33
2018-07-19T04:43:06.956Z,3.17
2018-07-19T04:45:35.288Z,3.60
2018-07-19T04:48:03.609Z,4.10
2018-07-19T04:50:31.924Z,3.17
2018-07-19T04:53:00.216Z,3.33
2018-07-19T04:55:28.553Z,3.20
2018-07-19T04:57:56.892Z,3.33
2018-07-19T05:00:25.229Z,3.97
2018-07-19T05:02:53.524Z,3.17
2018-07-19T05:05:21.880Z,3.53
2018-07-19T05:07:50.208Z,3.43
2018-07-19T05:10:18.535Z,3.30
2018-07-19T05:12:46.967Z,4.27
2018-07-19T05:15:15.310Z,3.43
2018-07-19T05:17:43.620Z,4.00
2018-07-19T05:20:11.969Z,4.10
2018-07-19T05:22:40.273Z,3.20
2018-07-19T05:25:08.629Z,3.40
2018-07-19T05:27:37.055Z,3.00
2018-07-19T05:30:05.413Z,3.10
2018-07-19T05:32:34.726Z,3.40
2018-07-19T05:35:03.226Z,3.27
2018-07-19T05:37:31.537Z,3.10
2018-07-19T05:39:59.881Z,3.80
2018-07-19T05:42:28.471Z,4.00
2018-07-19T05:44:56.765Z,3.67
2018-07-19T05:47:25.189Z,3.97
2018-07-19T05:49:53.540Z,3.40
2018-07-19T05:52:21.865Z,2.90
2018-07-19T05:54:50.206Z,2.90
2018-07-19T05:57:18.528Z,3.30
2018-07-19T05:59:46.901Z,2.83
2018-07-19T06:02:15.232Z,3.40
2018-07-19T06:04:43.540Z,3.10
2018-07-19T06:07:11.892Z,2.60
2018-07-19T06:09:40.262Z,2.60
2018-07-19T06:12:09.098Z,2.47
2018-07-19T06:14:37.397Z,2.80
2018-07-19T06:17:05.811Z,2.47
2018-07-19T06:19:34.169Z,2.50
2018-07-19T06:22:02.499Z,3.53
2018-07-19T06:24:30.820Z,3.63
2018-07-19T06:26:59.240Z,3.53
2018-07-19T06:29:27.545Z,2.93
2018-07-19T06:31:55.884Z,3.50
2018-07-19T06:34:24.223Z,3.47
2018-07-19T06:36:52.560Z,2.90
2018-07-19T06:39:20.884Z,2.43
2018-07-19T06:41:49.249Z,2.40
2018-07-19T06:44:17.580Z,2.50
2018-07-19T06:46:45.917Z,2.47
2018-07-19T06:49:14.247Z,2.40
2018-07-19T06:51:42.575Z,2.20
2018-07-19T06:54:10.890Z,2.00
2018-07-19T06:56:39.227Z,2.03
2018-07-19T06:59:08.177Z,2.80
2018-07-19T07:01:36.516Z,2.90
2018-07-19T07:04:04.846Z,3.33
2018-07-19T07:06:33.172Z,3.50
2018-07-19T07:09:01.555Z,3.33
2018-07-19T07:11:29.825Z,2.90
2018-07-19T07:13:58.169Z,2.60
2018-07-19T07:16:26.527Z,2.70
2018-07-19T07:18:54.823Z,2.50
2018-07-19T07:21:23.160Z,3.30
2018-07-19T07:23:51.485Z,2.27
2018-07-19T07:26:19.793Z,2.93
2018-07-19T07:28:48.170Z,3.40
2018-07-19T07:31:16.495Z,2.53
2018-07-19T07:33:44.840Z,2.27
2018-07-19T07:36:13.197Z,2.57
2018-07-19T07:38:41.789Z,2.37
2018-07-19T07:41:10.132Z,2.20
2018-07-19T07:43:38.448Z,2.10
2018-07-19T07:46:06.789Z,2.93
2018-07-19T07:48:35.129Z,2.00
2018-07-19T07:51:03.550Z,2.20
2018-07-19T07:53:31.872Z,2.23
2018-07-19T07:56:00.172Z,2.23
2018-07-19T07:58:28.538Z,2.00
2018-07-19T08:00:56.973Z,2.00
2018-07-19T08:03:25.345Z,2.17
2018-07-19T08:05:53.664Z,2.27
2018-07-19T08:08:21.997Z,2.57
2018-07-19T08:10:50.359Z,2.50
2018-07-19T08:13:18.719Z,2.10
2018-07-19T08:15:47.230Z,2.23
2018-07-19T08:18:15.564Z,2.10
2018-07-19T08:20:43.993Z,1.93
2018-07-19T08:23:12.338Z,1.60
2018-07-19T08:25:40.751Z,1.97
2018-07-19T08:28:09.112Z,2.07
2018-07-19T08:30:37.411Z,2.10
2018-07-19T08:33:05.913Z,2.00
2018-07-19T08:35:34.223Z,2.40
2018-07-19T08:38:02.601Z,1.60
2018-07-19T08:40:30.920Z,2.20
2018-07-19T08:42:59.253Z,1.80
2018-07-19T08:45:27.559Z,2.53
2018-07-19T08:47:55.928Z,2.33
2018-07-19T08:50:24.236Z,2.07
2018-07-19T08:52:52.633Z,3.10
2018-07-19T08:55:20.957Z,2.13
2018-07-19T08:57:49.309Z,1.83
2018-07-19T09:00:17.640Z,2.00
2018-07-19T09:02:45.988Z,2.00
2018-07-19T09:05:14.490Z,2.10
2018-07-19T09:07:42.861Z,1.90
2018-07-19T09:10:11.185Z,1.60
2018-07-19T09:12:39.597Z,2.03
2018-07-19T09:15:07.917Z,1.53
2018-07-19T09:17:36.252Z,2.43
2018-07-19T09:20:04.585Z,2.40
2018-07-19T09:22:32.982Z,2.10
2018-07-19T09:25:01.327Z,2.13
2018-07-19T09:27:29.639Z,1.70
2018-07-19T09:29:57.973Z,1.87
2018-07-19T09:32:26.288Z,1.50
2018-07-19T09:34:54.827Z,1.50
2018-07-19T09:37:23.166Z,2.70
2018-07-19T09:39:51.492Z,1.70
2018-07-19T09:42:19.841Z,1.60
2018-07-19T09:44:48.163Z,2.17
2018-07-19T09:47:16.461Z,2.00
2018-07-19T09:49:44.783Z,1.80
2018-07-19T09:52:13.105Z,1.80
2018-07-19T09:54:47.148Z,1.90
2018-07-19T09:57:15.447Z,2.07
2018-07-19T09:59:43.826Z,1.90
2018-07-19T10:02:14.205Z,2.00
2018-07-19T10:04:44.438Z,1.57
2018-07-19T10:07:12.854Z,1.70
2018-07-19T10:09:41.555Z,1.73
2018-07-19T10:12:10.529Z,1.77
2018-07-19T10:14:39.556Z,1.60
2018-07-19T10:17:07.860Z,1.93
2018-07-19T10:19:37.058Z,1.87
2018-07-19T10:22:05.448Z,2.07
2018-07-19T10:24:33.770Z,1.57
2018-07-19T10:27:02.129Z,2.10
2018-07-19T10:29:30.453Z,1.67
2018-07-19T10:31:58.770Z,2.23
2018-07-19T10:34:27.147Z,2.00
2018-07-19T10:36:55.398Z,2.37
2018-07-19T10:39:23.748Z,2.13
2018-07-19T10:41:52.049Z,2.10
2018-07-19T10:44:20.437Z,1.83
2018-07-19T10:46:48.719Z,2.60
2018-07-19T10:49:17.057Z,2.27
2018-07-19T10:51:45.421Z,1.80
2018-07-19T10:54:14.481Z,2.27
2018-07-19T10:56:42.910Z,2.03
2018-07-19T10:59:11.245Z,2.00
2018-07-19T11:01:39.584Z,2.60
2018-07-19T11:04:07.944Z,2.03
2018-07-19T11:06:36.260Z,2.50
2018-07-19T11:09:06.647Z,2.50
2018-07-19T11:11:34.957Z,1.80
2018-07-19T11:14:03.273Z,2.00
2018-07-19T11:16:31.633Z,1.90
2018-07-19T11:18:59.950Z,2.07
2018-07-19T11:21:28.266Z,2.47
2018-07-19T11:23:56.565Z,2.03
2018-07-19T11:26:24.881Z,2.13
2018-07-19T11:28:54.791Z,2.00
2018-07-19T11:31:23.128Z,2.50
2018-07-19T11:33:52.336Z,2.80
2018-07-19T11:36:20.653Z,2.40
2018-07-19T11:38:49.061Z,2.40
2018-07-19T11:41:17.388Z,2.50
2018-07-19T11:43:45.696Z,2.30
2018-07-19T11:46:14.093Z,2.43
2018-07-19T11:48:42.381Z,3.17
2018-07-19T11:51:10.724Z,2.50
2018-07-19T11:53:39.003Z,2.07
2018-07-19T11:56:07.334Z,2.30
2018-07-19T11:58:35.640Z,2.53
2018-07-19T12:01:04.074Z,2.60
2018-07-19T12:03:32.353Z,2.30
2018-07-19T12:06:00.682Z,3.07
2018-07-19T12:08:28.987Z,2.67
2018-07-19T12:10:57.353Z,2.90
2018-07-19T12:13:25.881Z,2.80
2018-07-19T12:15:54.201Z,2.23
2018-07-19T12:18:22.725Z,2.80
2018-07-19T12:20:51.065Z,2.43
2018-07-19T12:23:19.378Z,2.73
2018-07-19T12:25:47.680Z,2.90
2018-07-19T12:28:15.976Z,2.60
2018-07-19T12:30:44.284Z,2.40
2018-07-19T12:33:12.585Z,2.60
2018-07-19T12:35:40.916Z,2.20
2018-07-19T12:38:09.789Z,3.37
2018-07-19T12:40:38.215Z,1.97
2018-07-19T12:43:06.524Z,2.60
2018-07-19T12:45:35.039Z,2.40
2018-07-19T12:48:03.349Z,2.47
2018-07-19T12:50:31.636Z,2.10
2018-07-19T12:53:00.048Z,2.40
2018-07-19T12:55:28.361Z,2.70
2018-07-19T12:57:57.296Z,2.53
2018-07-19T13:00:25.626Z,2.60
2018-07-19T13:02:54.786Z,2.50
2018-07-19T13:05:23.281Z,2.67
2018-07-19T13:07:51.699Z,2.53
2018-07-19T13:10:19.976Z,2.50
2018-07-19T13:12:48.305Z,2.47
2018-07-19T13:15:16.636Z,2.07
2018-07-19T13:17:44.967Z,2.37
2018-07-19T13:20:13.250Z,2.80
2018-07-19T13:22:41.593Z,2.27
2018-07-19T13:25:09.894Z,3.03
2018-07-19T13:27:38.232Z,2.60
2018-07-19T13:30:06.614Z,2.40
2018-07-19T13:32:34.928Z,2.23
2018-07-19T13:35:03.361Z,2.53
2018-07-19T13:37:31.692Z,2.40
2018-07-19T13:40:00.001Z,2.53
2018-07-19T13:42:28.340Z,2.00
2018-07-19T13:44:56.659Z,2.70
2018-07-19T13:47:24.966Z,2.60
2018-07-19T13:49:53.264Z,2.70
2018-07-19T13:52:26.100Z,2.40
2018-07-19T13:54:54.408Z,2.43
2018-07-19T13:57:22.735Z,2.67
2018-07-19T13:59:51.052Z,2.47
2018-07-19T14:02:19.380Z,2.47
2018-07-19T14:04:47.735Z,2.40
2018-07-19T14:07:16.304Z,2.80
2018-07-19T14:09:44.748Z,2.57
2018-07-19T14:12:13.073Z,2.70
2018-07-19T14:14:41.372Z,2.23
2018-07-19T14:17:10.285Z,2.40
2018-07-19T14:19:38.580Z,2.50
2018-07-19T14:22:06.920Z,2.63
2018-07-19T14:24:35.217Z,1.80
2018-07-19T14:27:04.457Z,2.20
2018-07-19T14:29:32.936Z,3.20
2018-07-19T14:32:01.252Z,2.60
2018-07-19T14:34:29.591Z,2.00
2018-07-19T14:36:57.881Z,2.83
2018-07-19T14:39:26.203Z,2.40
2018-07-19T14:41:54.501Z,2.40
2018-07-19T14:44:22.804Z,2.83
2018-07-19T14:46:51.100Z,2.20
2018-07-19T14:49:19.439Z,2.70
2018-07-19T14:51:47.796Z,3.20
2018-07-19T14:54:16.124Z,2.37
2018-07-19T14:56:44.430Z,2.70
2018-07-19T14:59:12.776Z,3.17
2018-07-19T15:01:41.085Z,2.53
2018-07-19T15:04:09.416Z,2.80
2018-07-19T15:06:37.725Z,2.93
2018-07-19T15:09:07.788Z,2.83
2018-07-19T15:11:36.085Z,2.83
2018-07-19T15:14:04.397Z,2.20
2018-07-19T15:16:32.689Z,3.47
2018-07-19T15:19:02.005Z,3.00
2018-07-19T15:21:30.296Z,3.70
2018-07-19T15:23:58.613Z,2.83
2018-07-19T15:26:27.154Z,2.87
2018-07-19T15:28:55.517Z,2.47
2018-07-19T15:31:23.808Z,2.80
2018-07-19T15:33:52.197Z,2.27
2018-07-19T15:36:20.506Z,2.80
2018-07-19T15:38:48.828Z,2.30
2018-07-19T15:41:17.122Z,3.10
2018-07-19T15:43:45.460Z,4.60
2018-07-19T15:46:13.752Z,9.27
2018-07-19T15:48:42.061Z,3.70
2018-07-19T15:51:10.367Z,3.90
2018-07-19T15:53:38.737Z,3.17
2018-07-19T15:56:07.061Z,2.60
2018-07-19T15:58:35.411Z,3.00
2018-07-19T16:01:03.778Z,2.30
2018-07-19T16:03:32.066Z,2.77
2018-07-19T16:06:00.393Z,2.23
2018-07-19T16:08:28.699Z,4.10
2018-07-19T16:10:57.009Z,3.00
2018-07-19T16:13:25.303Z,2.43
2018-07-19T16:15:53.620Z,2.03
2018-07-19T16:18:21.899Z,2.20
2018-07-19T16:20:50.233Z,2.60
2018-07-19T16:23:18.540Z,2.63
2018-07-19T16:25:46.859Z,2.67
2018-07-19T16:28:15.193Z,2.10
2018-07-19T16:30:43.512Z,3.00
2018-07-19T16:33:11.807Z,2.87
2018-07-19T16:35:40.138Z,2.50
2018-07-19T16:38:08.432Z,2.50
2018-07-19T16:40:36.749Z,2.67
2018-07-19T16:43:05.179Z,2.03
2018-07-19T16:45:33.476Z,2.70
2018-07-19T16:48:01.921Z,2.60
2018-07-19T16:50:30.311Z,2.57
2018-07-19T16:52:59.472Z,2.60
2018-07-19T16:55:27.803Z,3.47
2018-07-19T16:57:56.093Z,3.10
2018-07-19T17:00:24.437Z,2.80
2018-07-19T17:02:52.730Z,2.70
2018-07-19T17:05:21.047Z,2.90
2018-07-19T17:07:49.410Z,2.97
2018-07-19T17:10:17.746Z,3.37
2018-07-19T17:12:46.052Z,2.90
2018-07-19T17:15:14.375Z,3.00
2018-07-19T17:17:42.660Z,3.53
2018-07-19T17:20:10.976Z,2.27
2018-07-19T17:22:39.304Z,2.67
2018-07-19T17:25:07.633Z,3.27
2018-07-19T17:27:35.925Z,3.00
2018-07-19T17:30:04.659Z,2.80
2018-07-19T17:32:32.966Z,2.70
2018-07-19T17:35:01.252Z,2.90
2018-07-19T17:37:29.595Z,3.07
2018-07-19T17:39:57.876Z,3.10
2018-07-19T17:42:26.220Z,2.70
2018-07-19T17:44:54.521Z,2.80
2018-07-19T17:47:22.853Z,2.80
2018-07-19T17:49:51.227Z,2.30
2018-07-19T17:52:19.544Z,2.37
2018-07-19T17:54:47.828Z,2.40
2018-07-19T17:57:16.150Z,2.40
2018-07-19T17:59:44.505Z,2.77
2018-07-19T18:02:12.824Z,3.00
2018-07-19T18:04:42.205Z,2.57
2018-07-19T18:07:11.106Z,2.30
2018-07-19T18:09:39.568Z,2.70
2018-07-19T18:12:07.891Z,2.60
2018-07-19T18:14:36.238Z,2.47
2018-07-19T18:17:05.376Z,2.30
2018-07-19T18:19:33.682Z,2.63
2018-07-19T18:22:01.981Z,2.60
2018-07-19T18:24:30.269Z,3.17
2018-07-19T18:26:58.777Z,2.83
2018-07-19T18:29:27.090Z,2.77
2018-07-19T18:31:55.392Z,2.70
2018-07-19T18:34:23.678Z,2.87
2018-07-19T18:36:52.009Z,2.50
2018-07-19T18:39:20.300Z,3.00
2018-07-19T18:41:48.633Z,2.60
2018-07-19T18:44:16.909Z,2.43
2018-07-19T18:46:45.215Z,2.73
2018-07-19T18:49:13.553Z,3.00
2018-07-19T18:51:41.883Z,2.70
2018-07-19T18:54:10.176Z,2.83
2018-07-19T18:56:38.509Z,2.77
2018-07-19T18:59:06.913Z,2.80
2018-07-19T19:01:35.217Z,2.60
2018-07-19T19:04:03.576Z,3.23
2018-07-19T19:06:31.989Z,4.00
2018-07-19T19:09:00.385Z,2.60
2018-07-19T19:11:28.701Z,3.20
2018-07-19T19:13:57.036Z,2.37
2018-07-19T19:16:25.339Z,2.60
2018-07-19T19:18:53.662Z,3.13
2018-07-19T19:21:21.972Z,3.50
2018-07-19T19:23:50.305Z,3.00
2018-07-19T19:26:18.636Z,2.90
2018-07-19T19:28:46.950Z,3.57
2018-07-19T19:31:15.256Z,3.40
2018-07-19T19:33:43.670Z,3.43
2018-07-19T19:36:11.976Z,3.30
2018-07-19T19:38:40.317Z,3.10
2018-07-19T19:41:08.602Z,2.60
2018-07-19T19:43:37.183Z,3.23
2018-07-19T19:46:05.560Z,3.90
2018-07-19T19:48:36.529Z,3.40
2018-07-19T19:51:06.372Z,3.30
2018-07-19T19:53:34.790Z,3.63
2018-07-19T19:56:03.368Z,3.13
2018-07-19T19:58:31.909Z,3.80
2018-07-19T20:01:00.528Z,2.87
2018-07-19T20:03:29.788Z,3.50
2018-07-19T20:05:58.109Z,3.47
2018-07-19T20:08:26.424Z,3.20
2018-07-19T20:10:54.736Z,3.73
2018-07-19T20:13:23.026Z,2.90
2018-07-19T20:15:51.518Z,3.50
2018-07-19T20:18:20.093Z,3.47
2018-07-19T20:20:48.517Z,3.20
2018-07-19T20:23:16.869Z,2.97
2018-07-19T20:25:45.186Z,3.70
2018-07-19T20:28:13.493Z,3.60
2018-07-19T20:30:41.827Z,3.67
2018-07-19T20:33:10.229Z,3.53
2018-07-19T20:35:39.105Z,2.87
2018-07-19T20:38:07.644Z,3.17
2018-07-19T20:40:35.964Z,3.67
2018-07-19T20:43:04.263Z,4.40
2018-07-19T20:45:32.597Z,3.43
2018-07-19T20:48:01.262Z,3.67
2018-07-19T20:50:29.628Z,3.93
2018-07-19T20:52:57.927Z,4.10
2018-07-19T20:55:26.239Z,3.70
2018-07-19T20:57:54.537Z,4.13
2018-07-19T21:00:22.891Z,4.70
2018-07-19T21:02:51.246Z,3.93
2018-07-19T21:05:19.554Z,3.83
2018-07-19T21:07:48.078Z,3.47
2018-07-19T21:10:16.402Z,3.53
2018-07-19T21:12:44.713Z,3.50
2018-07-19T21:15:13.085Z,3.63
2018-07-19T21:17:41.408Z,3.30
2018-07-19T21:20:09.763Z,3.67
2018-07-19T21:22:38.078Z,3.70
2018-07-19T21:25:06.481Z,4.70
2018-07-19T21:27:34.794Z,3.60
2018-07-19T21:30:03.383Z,4.07
2018-07-19T21:32:31.664Z,3.90
2018-07-19T21:34:59.954Z,4.00
2018-07-19T21:37:28.489Z,3.80
2018-07-19T21:39:56.796Z,3.73
2018-07-19T21:42:25.120Z,4.30
2018-07-19T21:44:53.413Z,4.00
2018-07-19T21:47:21.756Z,3.77
2018-07-19T21:49:50.071Z,4.10
2018-07-19T21:52:18.390Z,3.80
2018-07-19T21:54:46.681Z,4.53
2018-07-19T21:57:15.002Z,4.23
2018-07-19T21:59:43.324Z,3.97
2018-07-19T22:02:12.506Z,4.47
2018-07-19T22:04:40.919Z,4.13
2018-07-19T22:07:09.257Z,3.80
2018-07-19T22:09:37.574Z,3.90
2018-07-19T22:12:05.929Z,4.17
2018-07-19T22:14:34.236Z,4.10
2018-07-19T22:17:02.673Z,4.63
2018-07-19T22:19:30.948Z,4.20
2018-07-19T22:21:59.268Z,4.20
2018-07-19T22:24:27.589Z,4.40
2018-07-19T22:26:55.957Z,4.40
2018-07-19T22:29:24.276Z,3.80
2018-07-19T22:31:52.621Z,3.67
2018-07-19T22:34:20.912Z,5.00
2018-07-19T22:36:49.212Z,4.37
2018-07-19T22:39:17.508Z,4.20
2018-07-19T22:41:45.838Z,3.90
2018-07-19T22:44:14.128Z,4.30
2018-07-19T22:46:42.455Z,3.80
2018-07-19T22:49:10.755Z,4.23
2018-07-19T22:51:39.082Z,4.10
2018-07-19T22:54:07.369Z,4.20
2018-07-19T22:56:35.685Z,3.97
2018-07-19T22:59:04.018Z,4.17
2018-07-19T23:01:32.392Z,4.17
2018-07-19T23:04:00.684Z,4.40
2018-07-19T23:06:28.978Z,4.43
2018-07-19T23:08:57.305Z,4.80
2018-07-19T23:11:25.633Z,4.27
2018-07-19T23:13:53.944Z,4.00
2018-07-19T23:16:22.238Z,4.07
2018-07-19T23:18:50.568Z,4.17
2018-07-19T23:21:18.859Z,5.20
2018-07-19T23:23:47.208Z,4.30
2018-07-19T23:26:15.502Z,4.97
2018-07-19T23:28:43.881Z,4.00
2018-07-19T23:31:12.248Z,4.57
2018-07-19T23:33:40.637Z,4.40
2018-07-19T23:36:12.228Z,4.23
2018-07-19T23:38:48.137Z,5.07
2018-07-19T23:41:20.777Z,4.20
2018-07-19T23:43:52.857Z,4.77
2018-07-19T23:46:25.389Z,4.37
2018-07-19T23:48:55.201Z,4.10
2018-07-19T23:51:23.485Z,4.10
2018-07-19T23:53:51.872Z,4.27
2018-07-19T23:56:20.163Z,3.83
2018-07-19T23:58:48.519Z,4.10
